Metar Flugplatz Niederstetten

ETHN 162020Z 26011KT 5000 BR OVC002 M00/M00 Q1028 AMB



Temperatur Niederstetten
0 Grad Celsius

QNH Niederstetten
1028
==============================================================

TAF Niederstetten:

TAF ETHN 291027Z 2911/3002 24010KT 9999 NSW FEW240 TEMPO 2911/2916 26012G22KT 9999 NSW SCT035 BKN240



Alle Angaben ohne Gewähr